createdAt,value
2023-01-03T00:00:45.270Z,1027.34
2023-01-03T00:01:45.224Z,1027.29
2023-01-03T00:02:45.236Z,1027.26
2023-01-03T00:03:45.343Z,1027.23
2023-01-03T00:04:49.427Z,1027.24
2023-01-03T00:05:45.248Z,1027.29
2023-01-03T00:06:45.235Z,1027.32
2023-01-03T00:07:45.225Z,1027.38
2023-01-03T00:08:45.235Z,1027.38
2023-01-03T00:09:45.227Z,1027.31
2023-01-03T00:10:45.231Z,1027.34
2023-01-03T00:11:45.220Z,1027.36
2023-01-03T00:12:45.219Z,1027.31
2023-01-03T00:13:45.245Z,1027.25
2023-01-03T00:14:45.279Z,1027.32
2023-01-03T00:15:45.235Z,1027.32
2023-01-03T00:16:45.326Z,1027.38
2023-01-03T00:17:45.251Z,1027.42
2023-01-03T00:18:45.254Z,1027.39
2023-01-03T00:19:45.237Z,1027.45
2023-01-03T00:20:45.228Z,1027.43
2023-01-03T00:21:45.235Z,1027.48
2023-01-03T00:22:45.228Z,1027.45
2023-01-03T00:23:45.244Z,1027.52
2023-01-03T00:24:45.234Z,1027.49
2023-01-03T00:25:45.244Z,1027.48
2023-01-03T00:26:45.259Z,1027.42
2023-01-03T00:27:45.228Z,1027.48
2023-01-03T00:28:45.246Z,1027.52
2023-01-03T00:29:45.235Z,1027.59
2023-01-03T00:30:45.307Z,1027.59
2023-01-03T00:31:45.233Z,1027.65
2023-01-03T00:32:45.240Z,1027.64
2023-01-03T00:33:45.245Z,1027.66
2023-01-03T00:34:45.233Z,1027.72
2023-01-03T00:35:45.232Z,1027.7
2023-01-03T00:36:45.231Z,1027.73
2023-01-03T00:37:45.228Z,1027.81
2023-01-03T00:38:45.253Z,1027.79
2023-01-03T00:39:45.227Z,1027.8
2023-01-03T00:40:45.230Z,1027.72
2023-01-03T00:41:45.243Z,1027.71
2023-01-03T00:42:45.230Z,1027.75
2023-01-03T00:43:45.237Z,1027.73
2023-01-03T00:44:45.229Z,1027.73
2023-01-03T00:45:45.357Z,1027.75
2023-01-03T00:46:45.229Z,1027.71
2023-01-03T00:47:45.225Z,1027.78
2023-01-03T00:48:45.249Z,1027.8
2023-01-03T00:49:45.235Z,1027.84
2023-01-03T00:50:45.231Z,1027.91
2023-01-03T00:51:45.247Z,1027.93
2023-01-03T00:52:45.224Z,1027.89
2023-01-03T00:53:45.264Z,1027.89
2023-01-03T00:54:45.227Z,1027.95
2023-01-03T00:55:45.239Z,1027.93
2023-01-03T00:56:45.241Z,1027.96
2023-01-03T00:57:45.245Z,1028.02
2023-01-03T00:58:45.246Z,1028.01
2023-01-03T00:59:45.224Z,1028.01
2023-01-03T01:00:45.241Z,1028.04
2023-01-03T01:01:47.602Z,1028.06
2023-01-03T01:02:45.416Z,1028.06
2023-01-03T01:03:45.274Z,1028.07
2023-01-03T01:04:45.220Z,1028.04
2023-01-03T01:05:45.225Z,1028.1
2023-01-03T01:06:45.224Z,1028.14
2023-01-03T01:07:45.220Z,1028.26
2023-01-03T01:08:45.234Z,1028.24
2023-01-03T01:09:45.228Z,1028.24
2023-01-03T01:10:45.223Z,1028.28
2023-01-03T01:11:45.229Z,1028.29
2023-01-03T01:12:45.218Z,1028.31
2023-01-03T01:13:45.248Z,1028.33
2023-01-03T01:14:45.230Z,1028.28
2023-01-03T01:15:45.263Z,1028.32
2023-01-03T01:16:45.218Z,1028.31
2023-01-03T01:17:45.234Z,1028.4
2023-01-03T01:18:45.262Z,1028.4
2023-01-03T01:19:45.216Z,1028.38
2023-01-03T01:20:45.217Z,1028.36
2023-01-03T01:21:45.235Z,1028.35
2023-01-03T01:22:45.230Z,1028.38
2023-01-03T01:23:45.247Z,1028.42
2023-01-03T01:24:45.224Z,1028.46
2023-01-03T01:25:45.315Z,1028.43
2023-01-03T01:26:45.238Z,1028.48
2023-01-03T01:27:45.240Z,1028.49
2023-01-03T01:28:45.249Z,1028.46
2023-01-03T01:29:45.252Z,1028.51
2023-01-03T01:30:45.262Z,1028.51
2023-01-03T01:31:45.252Z,1028.55
2023-01-03T01:32:45.232Z,1028.56
2023-01-03T01:33:45.249Z,1028.53
2023-01-03T01:34:45.233Z,1028.57
2023-01-03T01:35:45.252Z,1028.63
2023-01-03T01:36:45.233Z,1028.55
2023-01-03T01:37:45.227Z,1028.57
2023-01-03T01:38:45.274Z,1028.55
2023-01-03T01:39:45.233Z,1028.55
2023-01-03T01:40:45.230Z,1028.63
2023-01-03T01:41:45.231Z,1028.59
2023-01-03T01:42:45.328Z,1028.6
2023-01-03T01:43:45.256Z,1028.53
2023-01-03T01:44:45.232Z,1028.56
2023-01-03T01:45:45.228Z,1028.59
2023-01-03T01:46:45.302Z,1028.57
2023-01-03T01:47:45.237Z,1028.58
2023-01-03T01:48:45.363Z,1028.58
2023-01-03T01:49:45.231Z,1028.61
2023-01-03T01:50:45.240Z,1028.63
2023-01-03T01:51:45.228Z,1028.62
2023-01-03T01:52:45.229Z,1028.63
2023-01-03T01:53:45.244Z,1028.69
2023-01-03T01:54:45.243Z,1028.74
2023-01-03T01:55:45.267Z,1028.73
2023-01-03T01:56:45.239Z,1028.7
2023-01-03T01:57:45.234Z,1028.71
2023-01-03T01:58:45.259Z,1028.69
2023-01-03T01:59:45.249Z,1028.69
2023-01-03T02:00:45.216Z,1028.69
2023-01-03T02:01:45.473Z,1028.7
2023-01-03T02:02:45.514Z,1028.73
2023-01-03T02:03:45.316Z,1028.69
2023-01-03T02:04:45.234Z,1028.74
2023-01-03T02:05:45.272Z,1028.61
2023-01-03T02:06:45.233Z,1028.72
2023-01-03T02:07:45.246Z,1028.78
2023-01-03T02:08:45.238Z,1028.78
2023-01-03T02:09:45.236Z,1028.77
2023-01-03T02:10:45.232Z,1028.73
2023-01-03T02:11:45.224Z,1028.73
2023-01-03T02:12:45.224Z,1028.82
2023-01-03T02:13:45.235Z,1028.87
2023-01-03T02:14:45.229Z,1028.86
2023-01-03T02:15:45.308Z,1028.84
2023-01-03T02:16:45.214Z,1028.83
2023-01-03T02:17:45.225Z,1028.91
2023-01-03T02:18:45.241Z,1028.96
2023-01-03T02:19:45.224Z,1028.86
2023-01-03T02:20:45.210Z,1028.95
2023-01-03T02:21:45.225Z,1028.82
2023-01-03T02:22:45.219Z,1028.86
2023-01-03T02:23:45.229Z,1028.96
2023-01-03T02:24:45.213Z,1028.94
2023-01-03T02:25:45.220Z,1028.94
2023-01-03T02:26:45.228Z,1028.98
2023-01-03T02:27:45.214Z,1029.02
2023-01-03T02:28:45.230Z,1029
2023-01-03T02:29:45.215Z,1029.07
2023-01-03T02:30:45.271Z,1029.04
2023-01-03T02:31:45.263Z,1028.98
2023-01-03T02:32:45.225Z,1029.03
2023-01-03T02:33:45.240Z,1028.99
2023-01-03T02:34:45.217Z,1028.98
2023-01-03T02:35:45.219Z,1028.88
2023-01-03T02:36:45.227Z,1028.89
2023-01-03T02:37:45.219Z,1028.98
2023-01-03T02:38:45.247Z,1028.99
2023-01-03T02:39:45.219Z,1028.97
2023-01-03T02:40:45.221Z,1028.89
2023-01-03T02:41:45.223Z,1028.93
2023-01-03T02:42:45.224Z,1029.02
2023-01-03T02:43:45.243Z,1029
2023-01-03T02:44:45.219Z,1028.99
2023-01-03T02:45:45.238Z,1029
2023-01-03T02:46:45.279Z,1029.05
2023-01-03T02:47:45.232Z,1029.05
2023-01-03T02:48:45.226Z,1029
2023-01-03T02:49:45.225Z,1028.97
2023-01-03T02:50:45.324Z,1029.06
2023-01-03T02:51:45.227Z,1029.05
2023-01-03T02:52:45.232Z,1029.08
2023-01-03T02:53:45.272Z,1029.03
2023-01-03T02:54:45.220Z,1028.91
2023-01-03T02:55:45.232Z,1029.05
2023-01-03T02:56:45.237Z,1029.06
2023-01-03T02:57:45.215Z,1029.05
2023-01-03T02:58:45.235Z,1029.06
2023-01-03T02:59:45.228Z,1029.04
2023-01-03T03:00:45.215Z,1029.04
2023-01-03T03:01:45.631Z,1029.09
2023-01-03T03:02:45.343Z,1029.03
2023-01-03T03:03:45.304Z,1029.03
2023-01-03T03:04:45.239Z,1029.09
2023-01-03T03:05:45.216Z,1029.07
2023-01-03T03:06:45.230Z,1029.09
2023-01-03T03:07:45.216Z,1029.08
2023-01-03T03:08:45.242Z,1029.08
2023-01-03T03:09:45.222Z,1029.12
2023-01-03T03:10:45.224Z,1029.09
2023-01-03T03:11:45.220Z,1029.06
2023-01-03T03:12:45.228Z,1029.03
2023-01-03T03:13:45.244Z,1029.03
2023-01-03T03:14:45.236Z,1029.06
2023-01-03T03:15:45.322Z,1029.07
2023-01-03T03:16:45.230Z,1029.09
2023-01-03T03:17:45.232Z,1029.02
2023-01-03T03:18:45.255Z,1029.1
2023-01-03T03:19:45.225Z,1029.08
2023-01-03T03:20:45.215Z,1029.08
2023-01-03T03:21:45.225Z,1029.04
2023-01-03T03:22:45.230Z,1029.04
2023-01-03T03:23:45.234Z,1029.01
2023-01-03T03:24:45.216Z,1029.06
2023-01-03T03:25:45.245Z,1029.17
2023-01-03T03:26:45.221Z,1029.14
2023-01-03T03:27:45.213Z,1029.19
2023-01-03T03:28:45.225Z,1029.11
2023-01-03T03:29:45.211Z,1029.21
2023-01-03T03:30:45.211Z,1029.21
2023-01-03T03:31:45.264Z,1029.2
2023-01-03T03:32:45.241Z,1029.22
2023-01-03T03:33:45.233Z,1029.21
2023-01-03T03:34:45.214Z,1029.2
2023-01-03T03:35:45.231Z,1029.26
2023-01-03T03:36:45.220Z,1029.22
2023-01-03T03:37:45.205Z,1029.27
2023-01-03T03:38:45.260Z,1029.27
2023-01-03T03:39:45.216Z,1029.27
2023-01-03T03:40:45.214Z,1029.31
2023-01-03T03:41:45.233Z,1029.31
2023-01-03T03:42:45.217Z,1029.3
2023-01-03T03:43:45.232Z,1029.4
2023-01-03T03:44:45.218Z,1029.4
2023-01-03T03:45:45.215Z,1029.45
2023-01-03T03:46:52.362Z,1029.44
2023-01-03T03:47:45.237Z,1029.35
2023-01-03T03:48:45.235Z,1029.51
2023-01-03T03:49:45.231Z,1029.46
2023-01-03T03:50:45.212Z,1029.49
2023-01-03T03:51:45.220Z,1029.5
2023-01-03T03:52:45.229Z,1029.49
2023-01-03T03:53:45.250Z,1029.51
2023-01-03T03:54:45.240Z,1029.51
2023-01-03T03:55:45.224Z,1029.42
2023-01-03T03:56:45.229Z,1029.54
2023-01-03T03:57:45.227Z,1029.51
2023-01-03T03:58:45.230Z,1029.55
2023-01-03T03:59:45.234Z,1029.56
2023-01-03T04:00:45.233Z,1029.56
2023-01-03T04:01:45.315Z,1029.63
2023-01-03T04:02:45.394Z,1029.66
2023-01-03T04:03:45.281Z,1029.69
2023-01-03T04:04:45.235Z,1029.62
2023-01-03T04:05:45.232Z,1029.61
2023-01-03T04:06:45.225Z,1029.61
2023-01-03T04:07:45.242Z,1029.56
2023-01-03T04:08:45.242Z,1029.56
2023-01-03T04:09:45.225Z,1029.56
2023-01-03T04:10:45.231Z,1029.67
2023-01-03T04:11:45.234Z,1029.67
2023-01-03T04:12:45.223Z,1029.7
2023-01-03T04:13:45.245Z,1029.67
2023-01-03T04:14:45.235Z,1029.71
2023-01-03T04:15:45.227Z,1029.72
2023-01-03T04:16:45.272Z,1029.74
2023-01-03T04:17:45.229Z,1029.76
2023-01-03T04:18:45.225Z,1029.74
2023-01-03T04:19:45.217Z,1029.75
2023-01-03T04:20:45.224Z,1029.76
2023-01-03T04:21:45.229Z,1029.72
2023-01-03T04:22:45.230Z,1029.77
2023-01-03T04:23:45.241Z,1029.72
2023-01-03T04:24:45.226Z,1029.76
2023-01-03T04:25:45.229Z,1029.79
2023-01-03T04:26:45.212Z,1029.78
2023-01-03T04:27:45.216Z,1029.82
2023-01-03T04:28:45.246Z,1029.84
2023-01-03T04:29:45.254Z,1029.82
2023-01-03T04:30:45.209Z,1029.85
2023-01-03T04:31:45.252Z,1029.88
2023-01-03T04:32:45.217Z,1029.91
2023-01-03T04:33:45.242Z,1029.9
2023-01-03T04:34:45.210Z,1029.9
2023-01-03T04:35:45.221Z,1029.88
2023-01-03T04:36:45.215Z,1029.86
2023-01-03T04:37:45.222Z,1029.87
2023-01-03T04:38:45.258Z,1029.85
2023-01-03T04:39:45.217Z,1029.89
2023-01-03T04:40:45.212Z,1029.91
2023-01-03T04:41:45.231Z,1029.92
2023-01-03T04:42:45.227Z,1029.92
2023-01-03T04:43:45.228Z,1029.91
2023-01-03T04:44:45.210Z,1029.9
2023-01-03T04:45:45.311Z,1029.92
2023-01-03T04:46:50.671Z,1029.94
2023-01-03T04:47:45.212Z,1029.93
2023-01-03T04:48:45.239Z,1029.94
2023-01-03T04:49:45.232Z,1029.93
2023-01-03T04:50:45.211Z,1029.91
2023-01-03T04:51:45.221Z,1029.98
2023-01-03T04:52:45.248Z,1029.92
2023-01-03T04:53:45.241Z,1029.93
2023-01-03T04:54:45.215Z,1029.93
2023-01-03T04:55:45.215Z,1029.97
2023-01-03T04:56:45.216Z,1029.97
2023-01-03T04:57:45.215Z,1030
2023-01-03T04:58:45.231Z,1030
2023-01-03T04:59:45.225Z,1029.99
2023-01-03T05:00:45.293Z,1030.01
2023-01-03T05:01:45.392Z,1029.98
2023-01-03T05:02:45.224Z,1030.02
2023-01-03T05:03:45.283Z,1030.02
2023-01-03T05:04:45.342Z,1030.02
2023-01-03T05:05:45.224Z,1030.03
2023-01-03T05:06:45.235Z,1030.03
2023-01-03T05:07:45.230Z,1030
2023-01-03T05:08:45.233Z,1030.11
2023-01-03T05:09:45.227Z,1030.11
2023-01-03T05:10:45.230Z,1030.11
2023-01-03T05:11:45.232Z,1030.13
2023-01-03T05:12:45.231Z,1030.11
2023-01-03T05:13:45.233Z,1030.11
2023-01-03T05:14:45.224Z,1030.12
2023-01-03T05:15:45.247Z,1030.18
2023-01-03T05:16:45.270Z,1030.18
2023-01-03T05:17:45.234Z,1030.21
2023-01-03T05:18:45.276Z,1030.18
2023-01-03T05:19:45.584Z,1030.2
2023-01-03T05:20:45.220Z,1030.29
2023-01-03T05:21:45.223Z,1030.26
2023-01-03T05:22:45.240Z,1030.32
2023-01-03T05:23:45.250Z,1030.24
2023-01-03T05:24:45.223Z,1030.28
2023-01-03T05:25:45.228Z,1030.29
2023-01-03T05:26:45.228Z,1030.27
2023-01-03T05:27:45.222Z,1030.26
2023-01-03T05:28:45.237Z,1030.29
2023-01-03T05:29:45.227Z,1030.36
2023-01-03T05:30:45.267Z,1030.34
2023-01-03T05:31:45.389Z,1030.37
2023-01-03T05:32:45.251Z,1030.39
2023-01-03T05:33:45.235Z,1030.37
2023-01-03T05:34:45.217Z,1030.38
2023-01-03T05:35:45.252Z,1030.38
2023-01-03T05:36:45.220Z,1030.36
2023-01-03T05:37:45.216Z,1030.34
2023-01-03T05:38:45.255Z,1030.34
2023-01-03T05:39:45.220Z,1030.27
2023-01-03T05:40:45.235Z,1030.29
2023-01-03T05:41:45.232Z,1030.26
2023-01-03T05:42:45.217Z,1030.25
2023-01-03T05:43:45.234Z,1030.27
2023-01-03T05:44:45.226Z,1030.23
2023-01-03T05:45:45.272Z,1030.23
2023-01-03T05:46:45.229Z,1030.29
2023-01-03T05:47:45.248Z,1030.23
2023-01-03T05:48:45.231Z,1030.26
2023-01-03T05:49:45.213Z,1030.24
2023-01-03T05:50:45.217Z,1030.23
2023-01-03T05:51:45.210Z,1030.32
2023-01-03T05:52:45.214Z,1030.27
2023-01-03T05:53:45.228Z,1030.39
2023-01-03T05:54:45.218Z,1030.35
2023-01-03T05:55:45.216Z,1030.36
2023-01-03T05:56:45.215Z,1030.38
2023-01-03T05:57:45.212Z,1030.42
2023-01-03T05:58:45.237Z,1030.41
2023-01-03T05:59:45.211Z,1030.41
2023-01-03T06:00:45.241Z,1030.41
2023-01-03T06:01:45.256Z,1030.41
2023-01-03T06:02:45.282Z,1030.47
2023-01-03T06:03:45.271Z,1030.45
2023-01-03T06:04:45.269Z,1030.43
2023-01-03T06:05:50.192Z,1030.42
2023-01-03T06:06:45.241Z,1030.46
2023-01-03T06:07:45.213Z,1030.51
2023-01-03T06:08:45.237Z,1030.52
2023-01-03T06:09:45.220Z,1030.51
2023-01-03T06:10:45.245Z,1030.52
2023-01-03T06:11:45.231Z,1030.48
2023-01-03T06:12:45.227Z,1030.52
2023-01-03T06:13:45.242Z,1030.54
2023-01-03T06:14:45.220Z,1030.55
2023-01-03T06:15:45.217Z,1030.55
2023-01-03T06:16:45.257Z,1030.5
2023-01-03T06:17:45.221Z,1030.5
2023-01-03T06:18:45.238Z,1030.52
2023-01-03T06:19:45.212Z,1030.49
2023-01-03T06:20:45.218Z,1030.49
2023-01-03T06:21:45.221Z,1030.57
2023-01-03T06:22:45.225Z,1030.55
2023-01-03T06:23:45.233Z,1030.6
2023-01-03T06:24:45.220Z,1030.6
2023-01-03T06:25:45.228Z,1030.58
2023-01-03T06:26:45.224Z,1030.62
2023-01-03T06:27:45.221Z,1030.66
2023-01-03T06:28:45.327Z,1030.71
2023-01-03T06:29:45.216Z,1030.69
2023-01-03T06:30:45.249Z,1030.65
2023-01-03T06:31:45.245Z,1030.64
2023-01-03T06:32:45.271Z,1030.66
2023-01-03T06:33:45.242Z,1030.65
2023-01-03T06:34:45.300Z,1030.66
2023-01-03T06:35:45.221Z,1030.68
2023-01-03T06:36:45.232Z,1030.67
2023-01-03T06:37:45.232Z,1030.68
2023-01-03T06:38:45.368Z,1030.69
2023-01-03T06:39:45.217Z,1030.7
2023-01-03T06:40:45.870Z,1030.7
2023-01-03T06:41:45.221Z,1030.8
2023-01-03T06:42:45.296Z,1030.79
2023-01-03T06:43:45.266Z,1030.78
2023-01-03T06:44:45.219Z,1030.83
2023-01-03T06:45:45.350Z,1030.81
2023-01-03T06:46:45.351Z,1030.8
2023-01-03T06:47:45.218Z,1030.85
2023-01-03T06:48:45.244Z,1030.87
2023-01-03T06:49:45.228Z,1030.87
2023-01-03T06:50:45.210Z,1030.87
2023-01-03T06:51:45.221Z,1030.88
2023-01-03T06:52:45.221Z,1030.92
2023-01-03T06:53:45.241Z,1030.96
2023-01-03T06:54:45.221Z,1030.96
2023-01-03T06:55:45.231Z,1031.06
2023-01-03T06:56:45.240Z,1031.07
2023-01-03T06:57:45.230Z,1031.06
2023-01-03T06:58:45.241Z,1031.07
2023-01-03T06:59:45.217Z,1031.06
2023-01-03T07:00:45.220Z,1031.06
2023-01-03T07:01:45.367Z,1031.08
2023-01-03T07:02:45.398Z,1031.11
2023-01-03T07:03:45.236Z,1031.13
2023-01-03T07:04:45.272Z,1031.17
2023-01-03T07:05:45.216Z,1031.21
2023-01-03T07:06:45.220Z,1031.2
2023-01-03T07:07:45.225Z,1031.19
2023-01-03T07:08:48.342Z,1031.2
2023-01-03T07:09:45.222Z,1031.22
2023-01-03T07:10:45.229Z,1031.22
2023-01-03T07:11:45.217Z,1031.24
2023-01-03T07:12:45.216Z,1031.21
2023-01-03T07:13:45.247Z,1031.18
2023-01-03T07:14:45.212Z,1031.21
2023-01-03T07:15:45.353Z,1031.25
2023-01-03T07:16:45.214Z,1031.25
2023-01-03T07:17:45.218Z,1031.24
2023-01-03T07:18:52.595Z,1031.26
2023-01-03T07:19:45.208Z,1031.21
2023-01-03T07:20:45.220Z,1031.21
2023-01-03T07:21:45.214Z,1031.26
2023-01-03T07:22:45.221Z,1031.26
2023-01-03T07:23:45.225Z,1031.26
2023-01-03T07:24:45.211Z,1031.3
2023-01-03T07:25:45.214Z,1031.32
2023-01-03T07:26:45.218Z,1031.32
2023-01-03T07:27:45.219Z,1031.34
2023-01-03T07:28:45.230Z,1031.35
2023-01-03T07:29:45.274Z,1031.3
2023-01-03T07:30:45.257Z,1031.3
2023-01-03T07:31:45.307Z,1031.35
2023-01-03T07:32:45.217Z,1031.33
2023-01-03T07:33:45.237Z,1031.32
2023-01-03T07:34:45.223Z,1031.35
2023-01-03T07:35:45.224Z,1031.39
2023-01-03T07:36:45.220Z,1031.37
2023-01-03T07:37:45.212Z,1031.37
2023-01-03T07:38:45.307Z,1031.38
2023-01-03T07:39:45.223Z,1031.39
2023-01-03T07:40:45.215Z,1031.41
2023-01-03T07:41:45.223Z,1031.42
2023-01-03T07:42:45.226Z,1031.49
2023-01-03T07:43:45.252Z,1031.45
2023-01-03T07:44:45.220Z,1031.45
2023-01-03T07:45:45.219Z,1031.45
2023-01-03T07:46:45.375Z,1031.44
2023-01-03T07:47:45.236Z,1031.48
2023-01-03T07:48:45.251Z,1031.5
2023-01-03T07:49:45.221Z,1031.52
2023-01-03T07:50:45.235Z,1031.52
2023-01-03T07:51:45.229Z,1031.54
2023-01-03T07:52:45.233Z,1031.57
2023-01-03T07:53:45.240Z,1031.58
2023-01-03T07:54:45.217Z,1031.63
2023-01-03T07:55:45.317Z,1031.62
2023-01-03T07:56:45.220Z,1031.62
2023-01-03T07:57:45.221Z,1031.62
2023-01-03T07:58:45.238Z,1031.61
2023-01-03T07:59:45.218Z,1031.64
2023-01-03T08:00:45.216Z,1031.64
2023-01-03T08:01:45.344Z,1031.66
2023-01-03T08:02:45.473Z,1031.74
2023-01-03T08:03:45.237Z,1031.71
2023-01-03T08:04:45.279Z,1031.72
2023-01-03T08:05:45.237Z,1031.73
2023-01-03T08:06:45.227Z,1031.75
2023-01-03T08:07:45.217Z,1031.76
2023-01-03T08:08:45.231Z,1031.81
2023-01-03T08:09:45.218Z,1031.79
2023-01-03T08:10:45.217Z,1031.79
2023-01-03T08:11:45.208Z,1031.82
2023-01-03T08:12:45.213Z,1031.89
2023-01-03T08:13:45.240Z,1031.95
2023-01-03T08:14:45.215Z,1031.96
2023-01-03T08:15:45.330Z,1031.96
2023-01-03T08:16:45.276Z,1031.99
2023-01-03T08:17:45.220Z,1032.02
2023-01-03T08:18:45.293Z,1031.97
2023-01-03T08:19:45.750Z,1031.97
2023-01-03T08:20:45.211Z,1031.97
2023-01-03T08:21:45.212Z,1031.95
2023-01-03T08:22:45.219Z,1031.99
2023-01-03T08:23:45.274Z,1031.99
2023-01-03T08:24:45.232Z,1032.01
2023-01-03T08:25:45.205Z,1032.02
2023-01-03T08:26:45.219Z,1032
2023-01-03T08:27:50.020Z,1032
2023-01-03T08:28:45.229Z,1032.01
2023-01-03T08:29:45.211Z,1032.03
2023-01-03T08:30:45.285Z,1032.03
2023-01-03T08:31:45.333Z,1032.01
2023-01-03T08:32:45.216Z,1032
2023-01-03T08:33:45.240Z,1032.02
2023-01-03T08:34:45.215Z,1032.05
2023-01-03T08:35:45.235Z,1032.04
2023-01-03T08:36:45.224Z,1032.04
2023-01-03T08:37:45.235Z,1032.01
2023-01-03T08:38:45.436Z,1032
2023-01-03T08:39:45.217Z,1032.03
2023-01-03T08:40:45.228Z,1032.03
2023-01-03T08:41:45.222Z,1032.06
2023-01-03T08:42:45.223Z,1032.08
2023-01-03T08:43:45.228Z,1032.07
2023-01-03T08:44:45.434Z,1032.1
2023-01-03T08:45:45.244Z,1032.09
2023-01-03T08:46:45.305Z,1032.1
2023-01-03T08:47:45.229Z,1032.07
2023-01-03T08:48:45.232Z,1032.1
2023-01-03T08:49:45.236Z,1032.13
2023-01-03T08:50:45.213Z,1032.11
2023-01-03T08:51:45.230Z,1032.13
2023-01-03T08:52:45.233Z,1032.11
2023-01-03T08:53:45.245Z,1032.11
2023-01-03T08:54:45.225Z,1032.18
2023-01-03T08:55:45.220Z,1032.12
2023-01-03T08:56:45.230Z,1032.17
2023-01-03T08:57:45.226Z,1032.19
2023-01-03T08:58:45.244Z,1032.14
2023-01-03T08:59:45.223Z,1032.2
2023-01-03T09:00:45.218Z,1032.2
2023-01-03T09:01:45.426Z,1032.2
2023-01-03T09:02:45.407Z,1032.19
2023-01-03T09:03:45.324Z,1032.19
2023-01-03T09:04:45.225Z,1032.21
2023-01-03T09:05:45.226Z,1032.24
2023-01-03T09:06:45.228Z,1032.3
2023-01-03T09:07:45.230Z,1032.31
2023-01-03T09:08:45.259Z,1032.27
2023-01-03T09:09:45.225Z,1032.33
2023-01-03T09:10:47.629Z,1032.33
2023-01-03T09:11:45.228Z,1032.3
2023-01-03T09:12:45.224Z,1032.34
2023-01-03T09:13:45.246Z,1032.36
2023-01-03T09:14:45.229Z,1032.35
2023-01-03T09:15:45.276Z,1032.38
2023-01-03T09:16:48.918Z,1032.4
2023-01-03T09:17:45.337Z,1032.37
2023-01-03T09:18:45.250Z,1032.38
2023-01-03T09:19:45.277Z,1032.37
2023-01-03T09:20:45.228Z,1032.37
2023-01-03T09:21:45.232Z,1032.41
2023-01-03T09:22:45.225Z,1032.42
2023-01-03T09:23:45.235Z,1032.41
2023-01-03T09:24:45.216Z,1032.38
2023-01-03T09:25:45.338Z,1032.44
2023-01-03T09:26:50.739Z,1032.38
2023-01-03T09:27:45.212Z,1032.42
2023-01-03T09:28:45.243Z,1032.45
2023-01-03T09:29:45.224Z,1032.42
2023-01-03T09:30:45.226Z,1032.42
2023-01-03T09:31:46.037Z,1032.42
2023-01-03T09:32:45.225Z,1032.4
2023-01-03T09:33:45.232Z,1032.37
2023-01-03T09:34:45.222Z,1032.44
2023-01-03T09:35:45.237Z,1032.44
2023-01-03T09:36:45.217Z,1032.4
2023-01-03T09:37:48.796Z,1032.38
2023-01-03T09:38:45.266Z,1032.35
2023-01-03T09:39:45.225Z,1032.29
2023-01-03T09:40:45.210Z,1032.29
2023-01-03T09:41:45.224Z,1032.3
2023-01-03T09:42:45.234Z,1032.3
2023-01-03T09:43:45.237Z,1032.24
2023-01-03T09:44:45.221Z,1032.21
2023-01-03T09:45:45.226Z,1032.17
2023-01-03T09:46:45.252Z,1032.13
2023-01-03T09:47:45.216Z,1032.17
2023-01-03T09:48:45.248Z,1032.15
2023-01-03T09:50:18.305Z,1032.18
2023-01-03T09:51:16.618Z,1032.21
2023-01-03T09:51:45.223Z,1032.24
2023-01-03T09:52:45.220Z,1032.22
2023-01-03T09:53:45.246Z,1032.22
2023-01-03T09:54:45.224Z,1032.2
2023-01-03T09:55:45.218Z,1032.2
2023-01-03T09:56:45.240Z,1032.17
2023-01-03T09:57:45.232Z,1032.19
2023-01-03T09:58:45.240Z,1032.2
2023-01-03T09:59:45.223Z,1032.15
2023-01-03T10:00:45.260Z,1032.15
2023-01-03T10:01:45.414Z,1032.12
2023-01-03T10:02:45.469Z,1032.18
2023-01-03T10:03:50.371Z,1032.21
2023-01-03T10:04:45.235Z,1032.23
2023-01-03T10:05:45.221Z,1032.24
2023-01-03T10:06:45.220Z,1032.23
2023-01-03T10:07:45.231Z,1032.22
2023-01-03T10:08:45.226Z,1032.23
2023-01-03T10:09:45.233Z,1032.23
2023-01-03T10:10:45.247Z,1032.29
2023-01-03T10:11:45.230Z,1032.27
2023-01-03T10:12:45.224Z,1032.24
2023-01-03T10:13:45.244Z,1032.24
2023-01-03T10:14:45.229Z,1032.24
2023-01-03T10:15:45.229Z,1032.26
2023-01-03T10:16:45.228Z,1032.2
2023-01-03T10:17:45.221Z,1032.17
2023-01-03T10:18:45.243Z,1032.18
2023-01-03T10:19:45.231Z,1032.11
2023-01-03T10:20:45.215Z,1032.13
2023-01-03T10:21:45.222Z,1032.14
2023-01-03T10:22:45.217Z,1032.22
2023-01-03T10:23:45.244Z,1032.14
2023-01-03T10:24:45.231Z,1032.18
2023-01-03T10:25:45.206Z,1032.14
2023-01-03T10:26:45.218Z,1032.1
2023-01-03T10:27:45.212Z,1032.14
2023-01-03T10:28:45.270Z,1032.2
2023-01-03T10:29:45.224Z,1032.14
2023-01-03T10:30:47.274Z,1032.14
2023-01-03T10:31:45.245Z,1032.08
2023-01-03T10:32:45.214Z,1032.18
2023-01-03T10:33:45.236Z,1032.1
2023-01-03T10:34:45.209Z,1032.07
2023-01-03T10:35:45.214Z,1032.13
2023-01-03T10:36:45.216Z,1032.15
2023-01-03T10:37:45.219Z,1032.14
2023-01-03T10:38:52.176Z,1032.15
2023-01-03T10:39:45.208Z,1032.11
2023-01-03T10:40:45.219Z,1032.11
2023-01-03T10:41:45.218Z,1032.19
2023-01-03T10:42:45.228Z,1032.12
2023-01-03T10:43:45.223Z,1032.11
2023-01-03T10:44:45.210Z,1032.21
2023-01-03T10:45:49.553Z,1032.13
2023-01-03T10:46:45.251Z,1032.15
2023-01-03T10:47:45.222Z,1032.18
2023-01-03T10:49:17.422Z,1032.06
2023-01-03T10:49:45.222Z,1032.07
2023-01-03T10:50:45.226Z,1032.07
2023-01-03T10:51:45.212Z,1032.02
2023-01-03T10:52:45.233Z,1032.03
2023-01-03T10:53:45.224Z,1032.04
2023-01-03T10:54:45.220Z,1031.98
2023-01-03T10:55:45.210Z,1032.01
2023-01-03T10:56:45.242Z,1031.99
2023-01-03T10:57:45.213Z,1031.99
2023-01-03T10:58:45.236Z,1032
2023-01-03T10:59:45.222Z,1031.99
2023-01-03T11:00:45.303Z,1031.99
2023-01-03T11:01:45.403Z,1032.01
2023-01-03T11:02:45.400Z,1031.99
2023-01-03T11:03:51.304Z,1032.04
2023-01-03T11:04:45.245Z,1032
2023-01-03T11:05:45.231Z,1031.98
2023-01-03T11:06:45.221Z,1031.92
2023-01-03T11:07:45.231Z,1031.91
2023-01-03T11:08:45.360Z,1031.92
2023-01-03T11:09:50.577Z,1031.91
2023-01-03T11:10:45.230Z,1031.86
2023-01-03T11:11:45.230Z,1031.9
2023-01-03T11:12:45.226Z,1031.85
2023-01-03T11:13:45.230Z,1031.84
2023-01-03T11:14:45.227Z,1031.86
2023-01-03T11:15:45.228Z,1031.85
2023-01-03T11:16:45.269Z,1031.81
2023-01-03T11:17:45.228Z,1031.85
2023-01-03T11:18:45.261Z,1031.8
2023-01-03T11:19:45.266Z,1031.82
2023-01-03T11:20:45.246Z,1031.77
2023-01-03T11:21:45.217Z,1031.76
2023-01-03T11:22:45.219Z,1031.68
2023-01-03T11:23:45.231Z,1031.75
2023-01-03T11:24:45.209Z,1031.68
2023-01-03T11:25:45.241Z,1031.74
2023-01-03T11:26:45.280Z,1031.71
2023-01-03T11:27:45.221Z,1031.66
2023-01-03T11:28:45.277Z,1031.71
2023-01-03T11:29:45.231Z,1031.64
2023-01-03T11:30:45.225Z,1031.63
2023-01-03T11:31:45.340Z,1031.7
2023-01-03T11:32:45.224Z,1031.65
2023-01-03T11:33:45.235Z,1031.67
2023-01-03T11:35:20.854Z,1031.63
2023-01-03T11:35:45.224Z,1031.66
2023-01-03T11:36:45.207Z,1031.64
2023-01-03T11:37:45.219Z,1031.72
2023-01-03T11:38:45.235Z,1031.61
2023-01-03T11:39:45.215Z,1031.67
2023-01-03T11:40:45.201Z,1031.67
2023-01-03T11:41:45.282Z,1031.61
2023-01-03T11:42:45.212Z,1031.58
2023-01-03T11:43:45.306Z,1031.62
2023-01-03T11:44:45.219Z,1031.59
2023-01-03T11:45:49.134Z,1031.58
2023-01-03T11:46:45.311Z,1031.57
2023-01-03T11:47:45.224Z,1031.68
2023-01-03T11:48:45.235Z,1031.71
2023-01-03T11:49:45.264Z,1031.7
2023-01-03T11:50:45.238Z,1031.7
2023-01-03T11:51:45.209Z,1031.72
2023-01-03T11:52:45.216Z,1031.67
2023-01-03T11:53:48.969Z,1031.63
2023-01-03T11:54:51.050Z,1031.64
2023-01-03T11:55:45.208Z,1031.62
2023-01-03T11:56:45.214Z,1031.65
2023-01-03T11:57:45.218Z,1031.71
2023-01-03T11:58:45.227Z,1031.7
2023-01-03T11:59:45.224Z,1031.7
2023-01-03T12:00:45.211Z,1031.7
2023-01-03T12:01:45.231Z,1031.72
2023-01-03T12:02:45.271Z,1031.68
2023-01-03T12:03:45.239Z,1031.68
2023-01-03T12:04:45.205Z,1031.73
2023-01-03T12:05:45.245Z,1031.75
2023-01-03T12:06:45.213Z,1031.74
2023-01-03T12:07:48.103Z,1031.71
2023-01-03T12:08:45.255Z,1031.73